ペトロパブロフスク・カムチャツキー の空港の天気 - METARとTAF

ペトロパブロフスク・カムチャツキー空港 ( UHPP / PKC ) - ロシア ペトロパブロフスク・カムチャツキー
飛行場実況気象(Metar)
観測時間02/21 02:00 +11 (02/20 15:00 UTC)
風向・風速西北西 9m/s
視程10km以上
天気現象低い地吹雪
全天の4割程度の雲 雲底高度 1310m
気温-2℃
湿度59%
気圧989hPa
METARUHPP 201500Z 29009MPS 9999 DRSN SCT043CB M02/M09 Q0989 R34L/710160 NOSIG RMK QFE738/0984
過去の天気等 Google飛行場航空写真 Wunderground天気予報

過去48時間のMETAR

飛行場予報(TAF)
発表時間: 2/21 00:32 +11 (2/20 13:32 UTC)
予報対象時間: 21日2時 +11 ~ 22日8時 +11
風向・風速北北東 3m/s 瞬間風速 12m/s
視程10km以上
全天の8割程度の積乱雲 雲底高度 910m
21日2時 +11 ~ 21日10時 +11 に一時的に
風向・風速北西 5m/s 瞬間風速 15m/s
視程1,000m
天気現象しゅう雪
全天を覆う雲 鉛直視程 90m
21日10時 +11 ~ 21日21時 +11 に一時的に
風向・風速北西 6m/s 瞬間風速 14m/s
視程3,100m
天気現象弱いしゅう雪
全天の8割程度の積乱雲 雲底高度 370m
TAF UHPP 201332Z 2015/2121 02003G12MPS 9999 BKN030CB
TEMPO 2015/2023 32005G15MPS 1000 SHSN VV003
TEMPO 2023/2110 32006G14MPS 3100 -SHSN BKN012CB